createdAt,value
2019-05-18T00:00:41.621Z,14.60
2019-05-18T00:01:41.615Z,13.10
2019-05-18T00:02:41.605Z,12.40
2019-05-18T00:03:41.596Z,14.00
2019-05-18T00:04:41.604Z,17.50
2019-05-18T00:05:41.568Z,11.00
2019-05-18T00:06:41.579Z,12.00
2019-05-18T00:07:41.559Z,14.50
2019-05-18T00:08:41.538Z,12.70
2019-05-18T00:09:43.070Z,12.60
2019-05-18T00:10:41.522Z,14.50
2019-05-18T00:11:41.529Z,14.20
2019-05-18T00:12:41.507Z,12.20
2019-05-18T00:13:41.478Z,13.30
2019-05-18T00:14:41.530Z,12.90
2019-05-18T00:15:41.469Z,15.60
2019-05-18T00:16:41.452Z,15.90
2019-05-18T00:17:41.457Z,16.20
2019-05-18T00:18:48.983Z,14.20
2019-05-18T00:19:41.414Z,14.60
2019-05-18T00:20:41.443Z,18.10
2019-05-18T00:21:41.391Z,16.20
2019-05-18T00:22:41.382Z,16.30
2019-05-18T00:23:41.372Z,15.70
2019-05-18T00:24:41.365Z,15.70
2019-05-18T00:25:41.372Z,14.40
2019-05-18T00:26:41.343Z,14.60
2019-05-18T00:27:41.329Z,14.10
2019-05-18T00:28:41.321Z,14.90
2019-05-18T00:29:41.323Z,13.20
2019-05-18T00:30:41.315Z,15.60
2019-05-18T00:31:41.283Z,13.50
2019-05-18T00:32:41.277Z,18.70
2019-05-18T00:33:41.274Z,14.10
2019-05-18T00:34:41.250Z,13.90
2019-05-18T00:35:41.271Z,14.20
2019-05-18T00:36:41.229Z,15.10
2019-05-18T00:37:41.235Z,13.90
2019-05-18T00:38:41.222Z,14.60
2019-05-18T00:39:41.201Z,14.80
2019-05-18T00:40:41.214Z,13.20
2019-05-18T00:41:41.175Z,14.60
2019-05-18T00:42:41.184Z,12.20
2019-05-18T00:43:41.153Z,15.20
2019-05-18T00:44:41.146Z,13.90
2019-05-18T00:45:48.695Z,17.40
2019-05-18T00:46:41.125Z,16.90
2019-05-18T00:47:42.231Z,15.50
2019-05-18T00:48:41.110Z,15.80
2019-05-18T00:49:41.093Z,16.20
2019-05-18T00:50:41.090Z,16.20
2019-05-18T00:51:41.088Z,14.20
2019-05-18T00:52:41.061Z,13.40
2019-05-18T00:53:41.044Z,12.50
2019-05-18T00:54:41.049Z,14.00
2019-05-18T00:55:41.024Z,15.70
2019-05-18T00:56:41.052Z,15.40
2019-05-18T00:57:41.005Z,14.70
2019-05-18T00:58:41.006Z,13.80
2019-05-18T00:59:40.981Z,14.60
2019-05-18T01:00:40.970Z,16.20
2019-05-18T01:01:40.966Z,13.90
2019-05-18T01:02:40.970Z,14.40
2019-05-18T01:03:40.949Z,13.40
2019-05-18T01:04:40.928Z,11.80
2019-05-18T01:05:40.994Z,12.80
2019-05-18T01:06:40.906Z,12.10
2019-05-18T01:07:40.929Z,13.90
2019-05-18T01:08:40.883Z,13.30
2019-05-18T01:09:40.871Z,13.50
2019-05-18T01:10:40.867Z,12.50
2019-05-18T01:11:40.851Z,13.10
2019-05-18T01:12:40.891Z,13.40
2019-05-18T01:13:40.832Z,12.70
2019-05-18T01:14:40.816Z,14.00
2019-05-18T01:15:40.808Z,13.50
2019-05-18T01:16:40.797Z,13.40
2019-05-18T01:17:40.804Z,13.80
2019-05-18T01:18:40.796Z,14.20
2019-05-18T01:19:40.764Z,12.40
2019-05-18T01:20:40.761Z,13.40
2019-05-18T01:21:40.744Z,14.80
2019-05-18T01:22:40.738Z,13.50
2019-05-18T01:23:40.754Z,11.60
2019-05-18T01:24:40.714Z,11.40
2019-05-18T01:25:40.699Z,12.80
2019-05-18T01:26:40.713Z,12.90
2019-05-18T01:27:40.687Z,11.50
2019-05-18T01:28:40.690Z,11.90
2019-05-18T01:29:40.658Z,14.00
2019-05-18T01:30:40.648Z,11.50
2019-05-18T01:31:40.637Z,12.70
2019-05-18T01:32:40.629Z,13.20
2019-05-18T01:33:40.631Z,12.80
2019-05-18T01:34:40.609Z,11.90
2019-05-18T01:35:40.605Z,13.90
2019-05-18T01:36:40.581Z,12.00
2019-05-18T01:37:40.569Z,13.10
2019-05-18T01:38:40.587Z,12.90
2019-05-18T01:39:40.550Z,12.60
2019-05-18T01:40:40.537Z,15.00
2019-05-18T01:41:40.590Z,12.70
2019-05-18T01:42:40.515Z,12.20
2019-05-18T01:43:40.528Z,12.70
2019-05-18T01:44:40.494Z,13.50
2019-05-18T01:45:40.500Z,14.00
2019-05-18T01:46:40.478Z,15.30
2019-05-18T01:47:40.466Z,13.50
2019-05-18T01:48:40.454Z,13.90
2019-05-18T01:49:40.499Z,13.60
2019-05-18T01:50:40.430Z,14.00
2019-05-18T01:51:40.419Z,12.50
2019-05-18T01:52:40.424Z,15.20
2019-05-18T01:53:40.398Z,13.70
2019-05-18T01:54:40.431Z,14.40
2019-05-18T01:55:40.375Z,13.40
2019-05-18T01:56:40.366Z,12.30
2019-05-18T01:57:40.359Z,11.90
2019-05-18T01:58:40.354Z,11.20
2019-05-18T01:59:42.177Z,11.30
2019-05-18T02:00:40.534Z,13.20
2019-05-18T02:01:40.314Z,13.00
2019-05-18T02:02:40.340Z,11.90
2019-05-18T02:03:40.294Z,14.00
2019-05-18T02:04:40.314Z,12.90
2019-05-18T02:05:40.297Z,12.20
2019-05-18T02:06:40.263Z,13.00
2019-05-18T02:07:40.255Z,12.70
2019-05-18T02:08:40.247Z,12.60
2019-05-18T02:09:40.677Z,11.80
2019-05-18T02:10:40.215Z,11.60
2019-05-18T02:11:40.206Z,15.00
2019-05-18T02:12:40.213Z,12.20
2019-05-18T02:13:40.184Z,11.90
2019-05-18T02:14:40.172Z,11.50
2019-05-18T02:15:40.182Z,10.70
2019-05-18T02:16:40.152Z,13.00
2019-05-18T02:17:40.138Z,12.60
2019-05-18T02:18:40.149Z,15.10
2019-05-18T02:19:40.119Z,15.50
2019-05-18T02:20:40.134Z,14.20
2019-05-18T02:21:40.099Z,12.40
2019-05-18T02:22:40.098Z,11.80
2019-05-18T02:23:40.075Z,11.80
2019-05-18T02:24:40.070Z,11.10
2019-05-18T02:25:40.073Z,10.30
2019-05-18T02:26:40.041Z,12.50
2019-05-18T02:27:40.041Z,13.90
2019-05-18T02:28:40.021Z,12.70
2019-05-18T02:29:40.009Z,15.10
2019-05-18T02:30:40.019Z,13.70
2019-05-18T02:31:40.010Z,11.20
2019-05-18T02:32:39.979Z,12.10
2019-05-18T02:33:39.979Z,11.00
2019-05-18T02:34:39.954Z,10.60
2019-05-18T02:35:39.968Z,10.30
2019-05-18T02:36:39.951Z,14.00
2019-05-18T02:37:39.930Z,14.10
2019-05-18T02:38:39.918Z,14.70
2019-05-18T02:39:39.900Z,15.30
2019-05-18T02:40:39.929Z,12.20
2019-05-18T02:41:39.880Z,11.40
2019-05-18T02:42:39.872Z,12.60
2019-05-18T02:43:39.867Z,12.90
2019-05-18T02:44:39.849Z,13.20
2019-05-18T02:45:39.897Z,13.10
2019-05-18T02:46:39.833Z,11.30
2019-05-18T02:47:39.823Z,12.30
2019-05-18T02:48:49.412Z,12.90
2019-05-18T02:49:40.829Z,12.80
2019-05-18T02:50:39.785Z,14.80
2019-05-18T02:51:39.813Z,12.80
2019-05-18T02:52:39.763Z,16.40
2019-05-18T02:53:39.759Z,13.50
2019-05-18T02:54:39.765Z,13.10
2019-05-18T02:55:39.745Z,11.20
2019-05-18T02:56:39.753Z,11.50
2019-05-18T02:57:39.723Z,14.00
2019-05-18T02:58:39.715Z,14.00
2019-05-18T02:59:39.692Z,13.70
2019-05-18T03:00:39.688Z,12.50
2019-05-18T03:01:39.697Z,13.20
2019-05-18T03:02:39.677Z,12.50
2019-05-18T03:03:39.662Z,12.40
2019-05-18T03:04:39.640Z,15.40
2019-05-18T03:05:39.628Z,15.50
2019-05-18T03:06:39.642Z,16.20
2019-05-18T03:07:39.627Z,14.00
2019-05-18T03:08:39.601Z,14.40
2019-05-18T03:09:39.617Z,14.90
2019-05-18T03:10:39.580Z,13.90
2019-05-18T03:11:39.631Z,14.00
2019-05-18T03:12:39.554Z,20.90
2019-05-18T03:13:39.541Z,19.20
2019-05-18T03:14:39.540Z,20.60
2019-05-18T03:15:39.516Z,18.40
2019-05-18T03:16:39.505Z,16.30
2019-05-18T03:17:39.534Z,16.50
2019-05-18T03:18:39.487Z,17.20
2019-05-18T03:19:39.483Z,16.10
2019-05-18T03:20:39.467Z,17.30
2019-05-18T03:21:39.451Z,15.80
2019-05-18T03:22:39.488Z,16.10
2019-05-18T03:23:39.438Z,17.70
2019-05-18T03:24:39.431Z,15.90
2019-05-18T03:25:39.407Z,16.70
2019-05-18T03:26:39.406Z,17.10
2019-05-18T03:27:39.390Z,16.40
2019-05-18T03:28:39.402Z,16.40
2019-05-18T03:29:39.365Z,16.10
2019-05-18T03:30:39.355Z,15.40
2019-05-18T03:31:39.387Z,15.70
2019-05-18T03:32:39.358Z,15.30
2019-05-18T03:33:39.348Z,15.40
2019-05-18T03:34:39.327Z,13.90
2019-05-18T03:35:39.316Z,14.30
2019-05-18T03:36:39.295Z,14.70
2019-05-18T03:37:39.279Z,16.40
2019-05-18T03:38:39.286Z,14.50
2019-05-18T03:39:39.254Z,14.40
2019-05-18T03:40:39.247Z,13.60
2019-05-18T03:41:39.240Z,13.40
2019-05-18T03:42:39.223Z,12.90
2019-05-18T03:43:39.234Z,17.70
2019-05-18T03:44:39.214Z,16.80
2019-05-18T03:45:39.212Z,17.20
2019-05-18T03:46:39.181Z,16.70
2019-05-18T03:47:39.170Z,15.20
2019-05-18T03:48:39.185Z,14.70
2019-05-18T03:49:39.157Z,13.30
2019-05-18T03:50:39.134Z,14.40
2019-05-18T03:51:39.128Z,13.40
2019-05-18T03:52:39.118Z,15.70
2019-05-18T03:53:39.112Z,17.00
2019-05-18T03:54:39.140Z,18.30
2019-05-18T03:55:39.082Z,15.50
2019-05-18T03:56:39.070Z,14.00
2019-05-18T03:57:39.069Z,14.10
2019-05-18T03:58:39.062Z,15.20
2019-05-18T03:59:39.068Z,15.50
2019-05-18T04:00:39.038Z,16.80
2019-05-18T04:01:39.018Z,15.10
2019-05-18T04:02:39.006Z,14.50
2019-05-18T04:03:38.996Z,17.00
2019-05-18T04:04:39.010Z,19.40
2019-05-18T04:05:38.977Z,16.50
2019-05-18T04:06:38.971Z,16.30
2019-05-18T04:07:38.963Z,18.00
2019-05-18T04:08:38.959Z,19.20
2019-05-18T04:09:38.932Z,16.70
2019-05-18T04:10:38.941Z,18.20
2019-05-18T04:11:38.934Z,14.70
2019-05-18T04:12:38.898Z,14.50
2019-05-18T04:13:38.897Z,15.20
2019-05-18T04:14:38.878Z,18.00
2019-05-18T04:15:38.923Z,17.90
2019-05-18T04:16:38.867Z,15.90
2019-05-18T04:17:38.859Z,17.70
2019-05-18T04:18:38.840Z,15.90
2019-05-18T04:19:46.181Z,16.20
2019-05-18T04:20:39.840Z,16.80
2019-05-18T04:21:38.808Z,16.20
2019-05-18T04:22:38.794Z,15.70
2019-05-18T04:23:38.787Z,16.90
2019-05-18T04:24:38.780Z,16.00
2019-05-18T04:25:38.788Z,15.90
2019-05-18T04:26:38.795Z,16.70
2019-05-18T04:27:38.744Z,16.10
2019-05-18T04:28:38.745Z,19.00
2019-05-18T04:29:38.721Z,18.30
2019-05-18T04:30:38.714Z,19.10
2019-05-18T04:31:38.726Z,19.90
2019-05-18T04:32:38.685Z,18.50
2019-05-18T04:33:38.682Z,20.10
2019-05-18T04:34:38.663Z,20.50
2019-05-18T04:35:38.665Z,18.30
2019-05-18T04:36:38.664Z,17.70
2019-05-18T04:37:38.632Z,19.60
2019-05-18T04:38:38.626Z,17.40
2019-05-18T04:39:38.608Z,14.80
2019-05-18T04:40:38.607Z,15.30
2019-05-18T04:41:38.609Z,12.90
2019-05-18T04:42:38.581Z,16.40
2019-05-18T04:43:38.574Z,17.90
2019-05-18T04:44:38.615Z,18.00
2019-05-18T04:45:38.548Z,19.10
2019-05-18T04:46:38.581Z,16.70
2019-05-18T04:47:38.524Z,15.80
2019-05-18T04:48:38.518Z,17.60
2019-05-18T04:49:38.509Z,15.90
2019-05-18T04:50:38.496Z,15.50
2019-05-18T04:51:38.483Z,13.40
2019-05-18T04:52:38.502Z,13.00
2019-05-18T04:53:38.475Z,17.50
2019-05-18T04:54:38.458Z,15.90
2019-05-18T04:55:38.439Z,16.40
2019-05-18T04:56:42.471Z,12.20
2019-05-18T04:57:38.445Z,14.40
2019-05-18T04:58:38.425Z,16.20
2019-05-18T04:59:38.396Z,18.10
2019-05-18T05:00:38.383Z,17.60
2019-05-18T05:01:38.413Z,15.80
2019-05-18T05:02:38.388Z,15.20
2019-05-18T05:03:38.364Z,18.30
2019-05-18T05:04:38.344Z,17.80
2019-05-18T05:05:38.356Z,14.80
2019-05-18T05:06:38.333Z,16.10
2019-05-18T05:07:38.325Z,18.00
2019-05-18T05:08:38.323Z,18.70
2019-05-18T05:09:38.284Z,18.00
2019-05-18T05:10:38.273Z,17.90
2019-05-18T05:11:38.267Z,17.20
2019-05-18T05:12:38.260Z,17.40
2019-05-18T05:13:38.307Z,15.70
2019-05-18T05:14:38.253Z,17.90
2019-05-18T05:15:38.222Z,18.30
2019-05-18T05:16:38.209Z,17.90
2019-05-18T05:17:38.208Z,18.00
2019-05-18T05:18:38.220Z,17.40
2019-05-18T05:19:38.178Z,15.40
2019-05-18T05:20:38.171Z,15.20
2019-05-18T05:21:38.156Z,14.40
2019-05-18T05:22:38.150Z,16.70
2019-05-18T05:23:38.162Z,15.40
2019-05-18T05:24:38.136Z,16.60
2019-05-18T05:25:38.113Z,16.20
2019-05-18T05:26:39.692Z,16.90
2019-05-18T05:27:38.091Z,19.40
2019-05-18T05:28:38.118Z,18.20
2019-05-18T05:29:38.076Z,17.90
2019-05-18T05:30:38.082Z,18.10
2019-05-18T05:31:38.051Z,18.50
2019-05-18T05:32:38.039Z,18.40
2019-05-18T05:33:38.080Z,15.70
2019-05-18T05:34:38.040Z,16.30
2019-05-18T05:35:38.009Z,18.70
2019-05-18T05:36:38.047Z,17.30
2019-05-18T05:37:37.985Z,15.30
2019-05-18T05:38:37.981Z,13.50
2019-05-18T05:39:38.003Z,14.20
2019-05-18T05:40:37.993Z,16.30
2019-05-18T05:41:37.964Z,17.30
2019-05-18T05:42:37.932Z,12.90
2019-05-18T05:43:37.923Z,16.50
2019-05-18T05:44:37.934Z,17.60
2019-05-18T05:45:37.922Z,17.90
2019-05-18T05:46:37.886Z,17.00
2019-05-18T05:47:45.434Z,15.70
2019-05-18T05:48:37.876Z,17.50
2019-05-18T05:49:37.857Z,20.00
2019-05-18T05:50:37.865Z,17.50
2019-05-18T05:51:37.833Z,16.20
2019-05-18T05:52:37.848Z,16.90
2019-05-18T05:53:37.814Z,15.60
2019-05-18T05:54:37.813Z,15.30
2019-05-18T05:55:37.828Z,20.50
2019-05-18T05:56:37.810Z,22.00
2019-05-18T05:57:37.776Z,16.70
2019-05-18T05:58:37.758Z,16.20
2019-05-18T05:59:37.772Z,19.30
2019-05-18T06:00:37.791Z,21.10
2019-05-18T06:01:37.733Z,18.60
2019-05-18T06:02:37.725Z,19.50
2019-05-18T06:03:37.704Z,18.20
2019-05-18T06:04:37.706Z,11.90
2019-05-18T06:05:37.715Z,18.00
2019-05-18T06:06:37.692Z,19.70
2019-05-18T06:07:37.665Z,20.20
2019-05-18T06:08:37.651Z,23.10
2019-05-18T06:09:37.639Z,22.50
2019-05-18T06:10:37.628Z,20.50
2019-05-18T06:11:37.641Z,19.90
2019-05-18T06:12:37.609Z,18.20
2019-05-18T06:13:37.608Z,21.60
2019-05-18T06:14:37.590Z,14.40
2019-05-18T06:15:37.584Z,15.80
2019-05-18T06:16:37.593Z,19.70
2019-05-18T06:17:37.557Z,20.40
2019-05-18T06:18:37.543Z,19.20
2019-05-18T06:19:37.544Z,17.60
2019-05-18T06:20:50.364Z,17.40
2019-05-18T06:21:38.555Z,16.70
2019-05-18T06:22:37.512Z,15.90
2019-05-18T06:23:37.527Z,16.00
2019-05-18T06:24:37.499Z,17.80
2019-05-18T06:25:37.475Z,16.00
2019-05-18T06:26:37.479Z,17.50
2019-05-18T06:27:37.456Z,16.20
2019-05-18T06:28:37.443Z,17.10
2019-05-18T06:29:37.428Z,15.50
2019-05-18T06:30:37.430Z,16.80
2019-05-18T06:31:37.436Z,15.70
2019-05-18T06:32:37.395Z,15.90
2019-05-18T06:33:37.384Z,16.50
2019-05-18T06:34:37.393Z,15.70
2019-05-18T06:35:37.379Z,12.60
2019-05-18T06:36:37.390Z,16.40
2019-05-18T06:37:37.343Z,14.10
2019-05-18T06:38:37.383Z,13.60
2019-05-18T06:39:37.400Z,15.00
2019-05-18T06:40:37.387Z,14.50
2019-05-18T06:41:37.328Z,14.50
2019-05-18T06:42:37.307Z,16.40
2019-05-18T06:43:37.323Z,16.20
2019-05-18T06:44:37.270Z,15.10
2019-05-18T06:45:37.273Z,12.80
2019-05-18T06:46:37.257Z,12.80
2019-05-18T06:47:37.259Z,16.30
2019-05-18T06:48:37.235Z,13.90
2019-05-18T06:49:37.221Z,12.60
2019-05-18T06:50:37.207Z,15.50
2019-05-18T06:51:37.199Z,16.10
2019-05-18T06:52:37.201Z,16.40
2019-05-18T06:53:37.169Z,16.30
2019-05-18T06:54:37.163Z,15.50
2019-05-18T06:55:37.150Z,15.10
2019-05-18T06:56:37.148Z,14.00
2019-05-18T06:57:37.145Z,17.50
2019-05-18T06:58:37.122Z,15.10
2019-05-18T06:59:37.106Z,14.40
2019-05-18T07:00:37.094Z,16.10
2019-05-18T07:01:37.094Z,14.00
2019-05-18T07:02:37.100Z,15.20
2019-05-18T07:03:37.107Z,13.10
2019-05-18T07:04:37.062Z,11.70
2019-05-18T07:05:37.042Z,12.40
2019-05-18T07:06:37.028Z,13.20
2019-05-18T07:07:37.027Z,13.50
2019-05-18T07:08:37.026Z,14.00
2019-05-18T07:09:37.001Z,13.50
2019-05-18T07:10:36.999Z,14.40
2019-05-18T07:11:37.013Z,15.90
2019-05-18T07:12:36.965Z,14.90
2019-05-18T07:13:36.974Z,13.40
2019-05-18T07:14:36.959Z,14.10
2019-05-18T07:15:36.932Z,15.20
2019-05-18T07:16:36.924Z,14.80
2019-05-18T07:17:36.939Z,13.20
2019-05-18T07:18:36.950Z,13.60
2019-05-18T07:19:36.888Z,14.70
2019-05-18T07:20:36.888Z,12.10
2019-05-18T07:21:36.879Z,15.20
2019-05-18T07:22:36.863Z,15.00
2019-05-18T07:23:36.883Z,14.40
2019-05-18T07:24:36.834Z,14.40
2019-05-18T07:25:36.852Z,13.80
2019-05-18T07:26:36.816Z,12.30
2019-05-18T07:27:36.826Z,13.90
2019-05-18T07:28:36.793Z,14.50
2019-05-18T07:29:36.840Z,12.00
2019-05-18T07:30:36.765Z,13.20
2019-05-18T07:31:36.758Z,11.70
2019-05-18T07:32:36.771Z,12.60
2019-05-18T07:33:36.737Z,12.30
2019-05-18T07:34:36.745Z,13.60
2019-05-18T07:35:36.723Z,12.60
2019-05-18T07:36:36.703Z,11.60
2019-05-18T07:37:36.692Z,12.80
2019-05-18T07:38:36.696Z,12.30
2019-05-18T07:39:36.693Z,11.30
2019-05-18T07:40:36.659Z,13.40
2019-05-18T07:41:46.339Z,12.40
2019-05-18T07:42:37.647Z,12.90
2019-05-18T07:43:36.628Z,11.90
2019-05-18T07:44:36.654Z,12.00
2019-05-18T07:45:36.605Z,11.30
2019-05-18T07:46:36.599Z,11.60
2019-05-18T07:47:36.586Z,12.60
2019-05-18T07:48:36.576Z,11.10
2019-05-18T07:49:36.591Z,11.80
2019-05-18T07:50:36.551Z,12.10
2019-05-18T07:51:37.503Z,12.20
2019-05-18T07:52:36.576Z,12.30
2019-05-18T07:54:37.528Z,13.50
2019-05-18T07:55:36.501Z,12.80
2019-05-18T07:56:36.488Z,13.20
2019-05-18T07:57:36.473Z,13.00
2019-05-18T07:58:36.466Z,12.60
2019-05-18T07:59:36.467Z,14.10
2019-05-18T08:00:36.460Z,14.10
2019-05-18T08:01:36.439Z,12.40
2019-05-18T08:02:38.301Z,14.30
2019-05-18T08:03:36.410Z,11.90
2019-05-18T08:04:39.705Z,12.10
2019-05-18T08:05:38.361Z,11.80
2019-05-18T08:06:36.551Z,12.30
2019-05-18T08:07:36.362Z,12.10
2019-05-18T08:08:36.357Z,11.70
2019-05-18T08:09:36.342Z,12.90
2019-05-18T08:10:36.366Z,13.60
2019-05-18T08:11:36.333Z,14.20
2019-05-18T08:12:36.309Z,12.10
2019-05-18T08:13:36.299Z,12.60
2019-05-18T08:14:36.289Z,10.90
2019-05-18T08:15:36.317Z,11.40
2019-05-18T08:16:36.291Z,13.00
2019-05-18T08:18:37.273Z,11.40
2019-05-18T08:19:36.237Z,12.60
2019-05-18T08:20:36.230Z,13.30
2019-05-18T08:21:36.237Z,12.90
2019-05-18T08:22:36.198Z,14.30
2019-05-18T08:23:36.202Z,12.10
2019-05-18T08:24:36.183Z,12.00
2019-05-18T08:25:36.192Z,14.10
2019-05-18T08:26:36.180Z,11.80
2019-05-18T08:27:36.159Z,12.40
2019-05-18T08:28:36.138Z,11.90
2019-05-18T08:29:36.125Z,12.10
2019-05-18T08:30:36.116Z,13.70
2019-05-18T08:31:36.134Z,12.40
2019-05-18T08:32:36.129Z,13.60
2019-05-18T08:33:36.085Z,12.70
2019-05-18T08:34:36.084Z,13.00
2019-05-18T08:35:36.056Z,14.10
2019-05-18T08:36:36.060Z,14.90
2019-05-18T08:37:36.061Z,13.60
2019-05-18T08:38:36.035Z,13.00
2019-05-18T08:39:36.020Z,12.70
2019-05-18T08:40:36.017Z,13.40
2019-05-18T08:41:35.995Z,16.00
2019-05-18T08:42:36.002Z,13.40
2019-05-18T08:43:35.970Z,15.20
2019-05-18T08:44:35.974Z,17.60
2019-05-18T08:45:35.979Z,16.80
2019-05-18T08:46:35.936Z,15.10
2019-05-18T08:47:35.949Z,14.60
2019-05-18T08:48:35.917Z,17.10
2019-05-18T08:49:35.905Z,19.60
2019-05-18T08:50:35.897Z,12.50
2019-05-18T08:51:35.905Z,14.50
2019-05-18T08:52:35.896Z,15.60
2019-05-18T08:53:35.877Z,17.20
2019-05-18T08:54:35.881Z,16.80
2019-05-18T08:55:35.842Z,15.50
2019-05-18T08:56:35.831Z,16.10
2019-05-18T08:57:35.844Z,16.70
2019-05-18T08:58:35.833Z,17.20
2019-05-18T08:59:35.919Z,16.00
2019-05-18T09:00:35.803Z,17.80
2019-05-18T09:01:35.845Z,17.40
2019-05-18T09:02:35.783Z,15.30
2019-05-18T09:03:35.774Z,14.90
2019-05-18T09:04:35.773Z,16.60
2019-05-18T09:05:35.759Z,18.80
2019-05-18T09:06:35.730Z,14.20
2019-05-18T09:07:35.739Z,16.10
2019-05-18T09:08:35.709Z,14.40
2019-05-18T09:09:35.690Z,15.40
2019-05-18T09:10:35.707Z,18.60
2019-05-18T09:11:35.665Z,16.60
2019-05-18T09:12:35.743Z,16.70
2019-05-18T09:13:35.651Z,18.40
2019-05-18T09:14:35.643Z,15.50
2019-05-18T09:15:35.641Z,16.70
2019-05-18T09:16:35.612Z,17.80
2019-05-18T09:17:35.604Z,15.60
2019-05-18T09:18:35.646Z,13.90
2019-05-18T09:19:35.595Z,13.20
2019-05-18T09:20:35.607Z,15.00
2019-05-18T09:21:35.562Z,15.60
2019-05-18T09:22:35.546Z,15.30
2019-05-18T09:23:35.556Z,16.30
2019-05-18T09:24:35.527Z,13.40
2019-05-18T09:25:35.519Z,19.60
2019-05-18T09:26:35.504Z,14.90
2019-05-18T09:27:35.517Z,13.50
2019-05-18T09:28:35.512Z,16.20
2019-05-18T09:29:35.472Z,16.00
2019-05-18T09:30:35.463Z,16.50
2019-05-18T09:31:35.454Z,16.70
2019-05-18T09:32:35.438Z,15.40
2019-05-18T09:33:35.432Z,15.70
2019-05-18T09:34:35.446Z,18.10
2019-05-18T09:35:35.406Z,17.40
2019-05-18T09:36:35.397Z,16.20
2019-05-18T09:37:35.388Z,15.30
2019-05-18T09:38:35.381Z,15.70
2019-05-18T09:39:35.833Z,15.80
2019-05-18T09:40:35.354Z,17.20
2019-05-18T09:41:35.345Z,15.50
2019-05-18T09:42:35.339Z,15.30
2019-05-18T09:43:35.320Z,15.30
2019-05-18T09:44:35.329Z,15.40
2019-05-18T09:45:35.300Z,18.90
2019-05-18T09:46:35.286Z,16.80
2019-05-18T09:47:35.292Z,16.60
2019-05-18T09:48:35.399Z,15.70
2019-05-18T09:49:35.294Z,17.20
2019-05-18T09:50:35.252Z,17.40
2019-05-18T09:51:35.234Z,16.40
2019-05-18T09:52:44.753Z,16.20
2019-05-18T09:53:36.232Z,18.30
2019-05-18T09:54:35.203Z,16.20
2019-05-18T09:55:35.220Z,13.50
2019-05-18T09:56:35.179Z,15.90
2019-05-18T09:57:35.167Z,16.30
2019-05-18T09:58:35.160Z,14.00
2019-05-18T09:59:35.168Z,16.00
2019-05-18T10:00:38.664Z,14.50
2019-05-18T10:01:35.137Z,14.10
2019-05-18T10:02:35.115Z,14.20
2019-05-18T10:03:35.108Z,16.00
2019-05-18T10:04:35.092Z,17.20
2019-05-18T10:05:35.103Z,15.30
2019-05-18T10:06:35.072Z,15.60
2019-05-18T10:07:35.060Z,14.70
2019-05-18T10:08:35.048Z,16.70
2019-05-18T10:09:39.187Z,18.00
2019-05-18T10:10:35.065Z,16.00
2019-05-18T10:11:38.402Z,14.00
2019-05-18T10:12:35.007Z,15.80
2019-05-18T10:13:34.995Z,14.80
2019-05-18T10:14:34.985Z,15.30
2019-05-18T10:15:34.992Z,14.80
2019-05-18T10:16:34.984Z,13.30
2019-05-18T10:17:34.961Z,13.00
2019-05-18T10:18:34.939Z,12.50
2019-05-18T10:19:34.961Z,12.50
2019-05-18T10:20:34.940Z,12.70
2019-05-18T10:21:34.960Z,12.30
2019-05-18T10:22:55.030Z,14.70
2019-05-18T10:23:35.894Z,13.60
2019-05-18T10:24:34.876Z,12.70
2019-05-18T10:25:34.889Z,14.40
2019-05-18T10:26:34.866Z,15.00
2019-05-18T10:27:34.844Z,13.40
2019-05-18T10:28:34.830Z,13.80
2019-05-18T10:29:34.836Z,14.30
2019-05-18T10:30:34.829Z,12.20
2019-05-18T10:31:34.799Z,13.70
2019-05-18T10:32:34.789Z,13.20
2019-05-18T10:33:34.789Z,14.40
2019-05-18T10:34:34.786Z,13.40
2019-05-18T10:35:34.776Z,12.20
2019-05-18T10:36:34.761Z,13.50
2019-05-18T10:37:34.735Z,14.70
2019-05-18T10:38:34.734Z,12.00
2019-05-18T10:39:42.286Z,12.90
2019-05-18T10:40:34.735Z,14.20
2019-05-18T10:41:42.247Z,12.70
2019-05-18T10:42:34.703Z,15.50
2019-05-18T10:43:42.235Z,15.10
2019-05-18T10:44:34.665Z,14.30
2019-05-18T10:45:44.785Z,14.00
2019-05-18T10:46:34.706Z,12.80
2019-05-18T10:47:42.194Z,13.20
2019-05-18T10:48:34.634Z,15.10
2019-05-18T10:49:42.190Z,16.50
2019-05-18T10:50:34.622Z,12.10
2019-05-18T10:51:42.209Z,12.90
2019-05-18T10:52:34.633Z,13.10
2019-05-18T10:53:34.600Z,14.80
2019-05-18T10:54:42.109Z,18.70
2019-05-18T10:55:34.732Z,14.10
2019-05-18T10:56:43.158Z,12.30
2019-05-18T10:57:34.545Z,15.30
2019-05-18T10:58:34.590Z,14.00
2019-05-18T10:59:42.085Z,20.00
2019-05-18T11:00:34.520Z,14.90
2019-05-18T11:01:44.044Z,13.70
2019-05-18T11:02:34.546Z,14.10
2019-05-18T11:03:42.015Z,13.40
2019-05-18T11:04:34.517Z,15.50
2019-05-18T11:05:34.439Z,13.20
2019-05-18T11:06:34.444Z,14.20
2019-05-18T11:07:34.477Z,13.50
2019-05-18T11:08:34.438Z,14.40
2019-05-18T11:09:34.544Z,13.70
2019-05-18T11:10:34.389Z,12.80
2019-05-18T11:11:43.115Z,14.30
2019-05-18T11:12:34.381Z,14.90
2019-05-18T11:13:41.937Z,34.40
2019-05-18T11:14:34.360Z,14.40
2019-05-18T11:15:41.874Z,12.80
2019-05-18T11:16:34.335Z,11.80
2019-05-18T11:17:41.865Z,13.20
2019-05-18T11:18:34.311Z,12.30
2019-05-18T11:19:34.279Z,12.10
2019-05-18T11:20:34.290Z,14.50
2019-05-18T11:21:34.271Z,12.30
2019-05-18T11:22:41.842Z,12.60
2019-05-18T11:23:43.171Z,14.00
2019-05-18T11:24:35.267Z,10.70
2019-05-18T11:25:34.238Z,12.20
2019-05-18T11:26:34.231Z,14.20
2019-05-18T11:27:34.236Z,11.50
2019-05-18T11:28:41.795Z,11.70
2019-05-18T11:29:34.206Z,13.90
2019-05-18T11:30:41.703Z,13.90
2019-05-18T11:31:34.164Z,11.40
2019-05-18T11:32:41.724Z,12.60
2019-05-18T11:33:34.152Z,10.80
2019-05-18T11:34:41.280Z,12.30
2019-05-18T11:35:34.113Z,14.60
2019-05-18T11:36:34.133Z,11.50
2019-05-18T11:37:34.117Z,12.80
2019-05-18T11:38:34.103Z,17.50
2019-05-18T11:39:41.660Z,17.30
2019-05-18T11:40:34.095Z,13.40
2019-05-18T11:41:41.600Z,18.90
2019-05-18T11:42:34.088Z,12.40
2019-05-18T11:44:43.773Z,11.10
2019-05-18T11:45:43.798Z,11.60
2019-05-18T11:46:51.322Z,10.30
2019-05-18T11:47:43.794Z,9.70
2019-05-18T11:48:51.255Z,9.80
2019-05-18T11:49:43.702Z,10.30
2019-05-18T11:50:43.685Z,9.10
2019-05-18T11:51:43.673Z,9.40
2019-05-18T11:52:43.678Z,9.30
2019-05-18T11:53:57.427Z,10.30
2019-05-18T11:54:44.645Z,12.30
2019-05-18T11:55:43.635Z,10.40
2019-05-18T11:56:43.633Z,10.70
2019-05-18T11:57:43.609Z,8.70
2019-05-18T11:58:43.618Z,11.00
2019-05-18T11:59:43.588Z,10.30
2019-05-18T12:00:43.587Z,9.00
2019-05-18T12:01:43.569Z,11.40
2019-05-18T12:02:43.557Z,10.60
2019-05-18T12:03:43.574Z,7.80
2019-05-18T12:04:43.545Z,9.30
2019-05-18T12:05:43.527Z,9.70
2019-05-18T12:06:43.520Z,11.20
2019-05-18T12:07:43.506Z,9.70
2019-05-18T12:08:43.499Z,9.40
2019-05-18T12:09:43.527Z,7.60
2019-05-18T12:10:43.483Z,7.70
2019-05-18T12:11:43.473Z,8.20
2019-05-18T12:12:43.459Z,10.40
2019-05-18T12:13:43.466Z,7.60
2019-05-18T12:14:43.462Z,7.10
2019-05-18T12:15:43.428Z,8.00
2019-05-18T12:16:43.435Z,7.40
2019-05-18T12:17:43.405Z,7.70
2019-05-18T12:18:43.432Z,7.40
2019-05-18T12:19:43.403Z,7.00
2019-05-18T12:20:43.388Z,6.80
2019-05-18T12:21:43.390Z,6.70
2019-05-18T12:22:43.364Z,8.60
2019-05-18T12:23:50.937Z,7.80
2019-05-18T12:24:43.363Z,8.30
2019-05-18T12:25:50.959Z,6.10
2019-05-18T12:26:43.399Z,7.40
2019-05-18T12:27:43.416Z,6.20
2019-05-18T12:28:50.873Z,7.90
2019-05-18T12:29:43.335Z,8.10
2019-05-18T12:30:43.799Z,7.90
2019-05-18T12:31:43.295Z,10.20
2019-05-18T12:32:43.279Z,9.40
2019-05-18T12:33:43.245Z,11.10
2019-05-18T12:34:45.184Z,11.80
2019-05-18T12:35:43.241Z,14.80
2019-05-18T12:36:43.212Z,44.70
2019-05-18T12:37:43.199Z,21.80
2019-05-18T12:38:43.210Z,15.20
2019-05-18T12:39:43.187Z,9.00
2019-05-18T12:40:43.198Z,8.60
2019-05-18T12:41:43.169Z,7.40
2019-05-18T12:42:43.151Z,7.70
2019-05-18T12:43:43.138Z,41.00
2019-05-18T12:44:43.133Z,25.00
2019-05-18T12:45:43.132Z,9.40
2019-05-18T12:46:43.155Z,6.20
2019-05-18T12:47:43.098Z,9.50
2019-05-18T12:48:43.120Z,7.60
2019-05-18T12:49:52.004Z,7.10
2019-05-18T12:50:43.165Z,9.80
2019-05-18T12:51:43.178Z,9.30
2019-05-18T12:52:43.061Z,6.70
2019-05-18T12:53:43.058Z,5.60
2019-05-18T12:54:46.566Z,7.70
2019-05-18T12:55:43.028Z,12.70
2019-05-18T12:56:43.117Z,13.80
2019-05-18T12:57:42.999Z,6.40